sensor_id;sensor_type;location;lat;lon;timestamp;pressure;altitude;pressure_sealevel;temperature;humidity
76987;BME280;65922;50.086;8.598;2022-12-29T00:00:34;99950;;;9.8;73.8
76987;BME280;65922;50.086;8.598;2022-12-29T00:01:34;99950;;;9.8;74
76987;BME280;65922;50.086;8.598;2022-12-29T00:02:34;99950;;;9.8;74.2
76987;BME280;65922;50.086;8.598;2022-12-29T00:03:34;99950;;;9.8;74.2
76987;BME280;65922;50.086;8.598;2022-12-29T00:04:34;99950;;;9.8;74.2
76987;BME280;65922;50.086;8.598;2022-12-29T00:05:34;99950;;;9.7;74.6
76987;BME280;65922;50.086;8.598;2022-12-29T00:06:34;99950;;;9.8;74.3
76987;BME280;65922;50.086;8.598;2022-12-29T00:07:34;99940;;;9.8;74.6
76987;BME280;65922;50.086;8.598;2022-12-29T00:08:34;99930;;;9.8;74.4
76987;BME280;65922;50.086;8.598;2022-12-29T00:09:34;99930;;;9.7;74.8
76987;BME280;65922;50.086;8.598;2022-12-29T00:10:34;99950;;;9.7;74.9
76987;BME280;65922;50.086;8.598;2022-12-29T00:11:34;99950;;;9.7;75.2
76987;BME280;65922;50.086;8.598;2022-12-29T00:12:34;99940;;;9.8;75.1
76987;BME280;65922;50.086;8.598;2022-12-29T00:13:34;99940;;;9.7;75.4
76987;BME280;65922;50.086;8.598;2022-12-29T00:14:34;99950;;;9.7;75.7
76987;BME280;65922;50.086;8.598;2022-12-29T00:15:35;99950;;;9.6;76.3
76987;BME280;65922;50.086;8.598;2022-12-29T00:16:34;99950;;;9.6;76.9
76987;BME280;65922;50.086;8.598;2022-12-29T00:17:34;99940;;;9.4;78.1
76987;BME280;65922;50.086;8.598;2022-12-29T00:18:34;99950;;;9.2;79.4
76987;BME280;65922;50.086;8.598;2022-12-29T00:19:34;99940;;;9.2;79.9
76987;BME280;65922;50.086;8.598;2022-12-29T00:20:34;99950;;;9.2;80.2
76987;BME280;65922;50.086;8.598;2022-12-29T00:21:34;99950;;;9.2;80.6
76987;BME280;65922;50.086;8.598;2022-12-29T00:22:34;99940;;;9.1;80.9
76987;BME280;65922;50.086;8.598;2022-12-29T00:23:35;99950;;;9.1;80.7
76987;BME280;65922;50.086;8.598;2022-12-29T00:24:34;99950;;;9.3;80.5
76987;BME280;65922;50.086;8.598;2022-12-29T00:25:35;99940;;;9.3;80.1
76987;BME280;65922;50.086;8.598;2022-12-29T00:26:34;99950;;;9.3;80.4
76987;BME280;65922;50.086;8.598;2022-12-29T00:27:34;99940;;;9.3;80.4
76987;BME280;65922;50.086;8.598;2022-12-29T00:28:34;99940;;;9.1;80.8
76987;BME280;65922;50.086;8.598;2022-12-29T00:29:34;99950;;;9.2;80.9
76987;BME280;65922;50.086;8.598;2022-12-29T00:30:34;99950;;;9.1;81.2
76987;BME280;65922;50.086;8.598;2022-12-29T00:31:34;99940;;;9.2;80.6
76987;BME280;65922;50.086;8.598;2022-12-29T00:32:34;99940;;;9.4;79.7
76987;BME280;65922;50.086;8.598;2022-12-29T00:33:34;99940;;;9.5;79.1
76987;BME280;65922;50.086;8.598;2022-12-29T00:34:34;99950;;;9.4;79.5
76987;BME280;65922;50.086;8.598;2022-12-29T00:35:35;99940;;;9.3;80.1
76987;BME280;65922;50.086;8.598;2022-12-29T00:36:35;99940;;;9.4;79.5
76987;BME280;65922;50.086;8.598;2022-12-29T00:37:34;99940;;;9.6;78.8
76987;BME280;65922;50.086;8.598;2022-12-29T00:38:35;99940;;;9.7;78.3
76987;BME280;65922;50.086;8.598;2022-12-29T00:39:34;99940;;;9.6;78.4
76987;BME280;65922;50.086;8.598;2022-12-29T00:40:34;99940;;;9.6;78.4
76987;BME280;65922;50.086;8.598;2022-12-29T00:41:34;99940;;;9.6;78.9
76987;BME280;65922;50.086;8.598;2022-12-29T00:42:34;99940;;;9.5;79.1
76987;BME280;65922;50.086;8.598;2022-12-29T00:43:34;99950;;;9.6;78.7
76987;BME280;65922;50.086;8.598;2022-12-29T00:44:34;99950;;;9.8;77.9
76987;BME280;65922;50.086;8.598;2022-12-29T00:45:34;99960;;;9.7;78.3
76987;BME280;65922;50.086;8.598;2022-12-29T00:46:34;99940;;;9.9;77.7
76987;BME280;65922;50.086;8.598;2022-12-29T00:47:34;99950;;;9.9;77.5
76987;BME280;65922;50.086;8.598;2022-12-29T00:48:34;99940;;;9.9;77.6
76987;BME280;65922;50.086;8.598;2022-12-29T00:49:34;99940;;;10;77.7
76987;BME280;65922;50.086;8.598;2022-12-29T00:50:34;99950;;;9.9;78.2
76987;BME280;65922;50.086;8.598;2022-12-29T00:51:34;99950;;;9.8;79.5
76987;BME280;65922;50.086;8.598;2022-12-29T00:52:34;99940;;;9.8;79.7
76987;BME280;65922;50.086;8.598;2022-12-29T00:53:34;99950;;;9.8;79.6
76987;BME280;65922;50.086;8.598;2022-12-29T00:54:34;99940;;;9.9;79.3
76987;BME280;65922;50.086;8.598;2022-12-29T00:55:35;99940;;;10.1;78.5
76987;BME280;65922;50.086;8.598;2022-12-29T00:56:34;99940;;;10;78.7
76987;BME280;65922;50.086;8.598;2022-12-29T00:57:34;99940;;;10.1;78.6
76987;BME280;65922;50.086;8.598;2022-12-29T00:58:34;99940;;;10;79.1
76987;BME280;65922;50.086;8.598;2022-12-29T00:59:34;99940;;;10.2;78.2
76987;BME280;65922;50.086;8.598;2022-12-29T01:00:34;99930;;;10;78.8
76987;BME280;65922;50.086;8.598;2022-12-29T01:01:34;99940;;;10.1;78.9
76987;BME280;65922;50.086;8.598;2022-12-29T01:02:34;99930;;;10.1;78.4
76987;BME280;65922;50.086;8.598;2022-12-29T01:03:35;99930;;;10.1;78.8
76987;BME280;65922;50.086;8.598;2022-12-29T01:04:34;99930;;;10.1;79
76987;BME280;65922;50.086;8.598;2022-12-29T01:05:35;99920;;;10;79.1
76987;BME280;65922;50.086;8.598;2022-12-29T01:06:35;99920;;;10;79.3
76987;BME280;65922;50.086;8.598;2022-12-29T01:07:34;99920;;;10;79.2
76987;BME280;65922;50.086;8.598;2022-12-29T01:08:34;99920;;;10.1;78.7
76987;BME280;65922;50.086;8.598;2022-12-29T01:09:34;99920;;;10.2;78.5
76987;BME280;65922;50.086;8.598;2022-12-29T01:10:34;99930;;;10.2;78.4
76987;BME280;65922;50.086;8.598;2022-12-29T01:11:34;99940;;;10.3;78.1
76987;BME280;65922;50.086;8.598;2022-12-29T01:12:34;99930;;;10.3;78.1
76987;BME280;65922;50.086;8.598;2022-12-29T01:13:34;99920;;;10.4;77.9
76987;BME280;65922;50.086;8.598;2022-12-29T01:14:34;99930;;;10.3;78.1
76987;BME280;65922;50.086;8.598;2022-12-29T01:15:34;99930;;;10.3;78.3
76987;BME280;65922;50.086;8.598;2022-12-29T01:16:34;99930;;;10.3;78.2
76987;BME280;65922;50.086;8.598;2022-12-29T01:17:34;99930;;;10.2;78.6
76987;BME280;65922;50.086;8.598;2022-12-29T01:18:34;99920;;;10.1;79.4
76987;BME280;65922;50.086;8.598;2022-12-29T01:19:34;99930;;;10.1;79.3
76987;BME280;65922;50.086;8.598;2022-12-29T01:20:34;99920;;;10.2;78.9
76987;BME280;65922;50.086;8.598;2022-12-29T01:21:34;99920;;;10.2;79
76987;BME280;65922;50.086;8.598;2022-12-29T01:22:34;99920;;;10.2;79.1
76987;BME280;65922;50.086;8.598;2022-12-29T01:23:34;99910;;;10.4;78.3
76987;BME280;65922;50.086;8.598;2022-12-29T01:24:34;99920;;;10.3;78.5
76987;BME280;65922;50.086;8.598;2022-12-29T01:25:34;99920;;;10.4;78.5
76987;BME280;65922;50.086;8.598;2022-12-29T01:26:34;99910;;;10.3;78.7
76987;BME280;65922;50.086;8.598;2022-12-29T01:27:34;99910;;;10.2;79.2
76987;BME280;65922;50.086;8.598;2022-12-29T01:28:34;99920;;;10.3;79
76987;BME280;65922;50.086;8.598;2022-12-29T01:29:34;99910;;;10.2;79.2
76987;BME280;65922;50.086;8.598;2022-12-29T01:30:34;99910;;;10.3;78.9
76987;BME280;65922;50.086;8.598;2022-12-29T01:31:34;99910;;;10.4;78.8
76987;BME280;65922;50.086;8.598;2022-12-29T01:32:34;99900;;;10.4;78.6
76987;BME280;65922;50.086;8.598;2022-12-29T01:33:34;99900;;;10.4;78.7
76987;BME280;65922;50.086;8.598;2022-12-29T01:34:34;99910;;;10.3;79.1
76987;BME280;65922;50.086;8.598;2022-12-29T01:35:34;99900;;;10.2;79.5
76987;BME280;65922;50.086;8.598;2022-12-29T01:36:34;99910;;;10.3;79.6
76987;BME280;65922;50.086;8.598;2022-12-29T01:37:34;99900;;;10.3;79.5
76987;BME280;65922;50.086;8.598;2022-12-29T01:38:34;99900;;;10.3;79.7
76987;BME280;65922;50.086;8.598;2022-12-29T01:39:34;99900;;;10.2;79.8
76987;BME280;65922;50.086;8.598;2022-12-29T01:40:35;99900;;;10.1;80.1
76987;BME280;65922;50.086;8.598;2022-12-29T01:41:34;99900;;;10.1;80.4
76987;BME280;65922;50.086;8.598;2022-12-29T01:42:34;99900;;;10.1;80.6
76987;BME280;65922;50.086;8.598;2022-12-29T01:43:38;99910;;;10.2;80.2
76987;BME280;65922;50.086;8.598;2022-12-29T01:44:51;99900;;;10.2;80.3
76987;BME280;65922;50.086;8.598;2022-12-29T01:45:34;99900;;;10.1;80.5
76987;BME280;65922;50.086;8.598;2022-12-29T01:46:34;99900;;;10.1;80.8
76987;BME280;65922;50.086;8.598;2022-12-29T01:47:34;99910;;;10.1;80.7
76987;BME280;65922;50.086;8.598;2022-12-29T01:48:34;99910;;;10.1;80.8
76987;BME280;65922;50.086;8.598;2022-12-29T01:49:34;99910;;;10.2;80.5
76987;BME280;65922;50.086;8.598;2022-12-29T01:50:35;99910;;;10.2;80.5
76987;BME280;65922;50.086;8.598;2022-12-29T01:51:35;99900;;;10.2;80.3
76987;BME280;65922;50.086;8.598;2022-12-29T01:52:35;99910;;;10.2;80.5
76987;BME280;65922;50.086;8.598;2022-12-29T01:53:34;99910;;;10.2;80.6
76987;BME280;65922;50.086;8.598;2022-12-29T01:54:35;99900;;;10.2;80.5
76987;BME280;65922;50.086;8.598;2022-12-29T01:55:35;99900;;;10.1;80.6
76987;BME280;65922;50.086;8.598;2022-12-29T01:56:34;99910;;;10.3;80.3
76987;BME280;65922;50.086;8.598;2022-12-29T01:57:35;99910;;;10.2;80.3
76987;BME280;65922;50.086;8.598;2022-12-29T01:58:35;99910;;;10.3;80.2
76987;BME280;65922;50.086;8.598;2022-12-29T01:59:34;99890;;;10.3;80.1
76987;BME280;65922;50.086;8.598;2022-12-29T02:00:34;99890;;;10.3;80.3
76987;BME280;65922;50.086;8.598;2022-12-29T02:01:34;99890;;;10.3;80
76987;BME280;65922;50.086;8.598;2022-12-29T02:02:34;99890;;;10.3;80.2
76987;BME280;65922;50.086;8.598;2022-12-29T02:03:34;99890;;;10.2;80.5
76987;BME280;65922;50.086;8.598;2022-12-29T02:04:34;99890;;;10.1;80.8
76987;BME280;65922;50.086;8.598;2022-12-29T02:05:36;99890;;;10.2;80.6
76987;BME280;65922;50.086;8.598;2022-12-29T02:06:35;99890;;;10.3;80.4
76987;BME280;65922;50.086;8.598;2022-12-29T02:07:34;99890;;;10.3;80.3
76987;BME280;65922;50.086;8.598;2022-12-29T02:08:34;99890;;;10.3;80.2
76987;BME280;65922;50.086;8.598;2022-12-29T02:09:34;99890;;;10.4;79.9
76987;BME280;65922;50.086;8.598;2022-12-29T02:10:34;99890;;;10.3;80.1
76987;BME280;65922;50.086;8.598;2022-12-29T02:11:34;99890;;;10.2;80.5
76987;BME280;65922;50.086;8.598;2022-12-29T02:12:34;99890;;;10.2;80.8
76987;BME280;65922;50.086;8.598;2022-12-29T02:13:34;99890;;;10.2;80.6
76987;BME280;65922;50.086;8.598;2022-12-29T02:14:34;99900;;;10.3;80.6
76987;BME280;65922;50.086;8.598;2022-12-29T02:15:35;99900;;;10.2;80.8
76987;BME280;65922;50.086;8.598;2022-12-29T02:16:38;99890;;;10.2;80.7
76987;BME280;65922;50.086;8.598;2022-12-29T02:17:39;99900;;;10.3;80.4
76987;BME280;65922;50.086;8.598;2022-12-29T02:18:36;99890;;;10.4;80
76987;BME280;65922;50.086;8.598;2022-12-29T02:19:41;99910;;;10.4;80.1
76987;BME280;65922;50.086;8.598;2022-12-29T02:20:41;99900;;;10.4;79.7
76987;BME280;65922;50.086;8.598;2022-12-29T02:21:41;99890;;;10.4;80
76987;BME280;65922;50.086;8.598;2022-12-29T02:22:34;99890;;;10.4;80
76987;BME280;65922;50.086;8.598;2022-12-29T02:23:42;99880;;;10.4;79.8
76987;BME280;65922;50.086;8.598;2022-12-29T02:24:46;99890;;;10.5;79.7
76987;BME280;65922;50.086;8.598;2022-12-29T02:25:39;99890;;;10.5;79.5
76987;BME280;65922;50.086;8.598;2022-12-29T02:26:38;99890;;;10.5;79.4
76987;BME280;65922;50.086;8.598;2022-12-29T02:27:39;99890;;;10.5;79.4
76987;BME280;65922;50.086;8.598;2022-12-29T02:28:40;99890;;;10.5;79.4
76987;BME280;65922;50.086;8.598;2022-12-29T02:29:39;99900;;;10.5;79.4
76987;BME280;65922;50.086;8.598;2022-12-29T02:30:36;99900;;;10.5;79.5
76987;BME280;65922;50.086;8.598;2022-12-29T02:31:35;99890;;;10.5;79.4
76987;BME280;65922;50.086;8.598;2022-12-29T02:32:37;99890;;;10.5;79.5
76987;BME280;65922;50.086;8.598;2022-12-29T02:33:37;99890;;;10.5;79.5
76987;BME280;65922;50.086;8.598;2022-12-29T02:34:36;99890;;;10.5;79.3
76987;BME280;65922;50.086;8.598;2022-12-29T02:35:35;99890;;;10.5;79.6
76987;BME280;65922;50.086;8.598;2022-12-29T02:36:38;99880;;;10.5;79.4
76987;BME280;65922;50.086;8.598;2022-12-29T02:37:35;99890;;;10.5;79.3
76987;BME280;65922;50.086;8.598;2022-12-29T02:38:39;99880;;;10.6;79
76987;BME280;65922;50.086;8.598;2022-12-29T02:39:35;99880;;;10.4;79.5
76987;BME280;65922;50.086;8.598;2022-12-29T02:40:36;99870;;;10.3;80.1
76987;BME280;65922;50.086;8.598;2022-12-29T02:41:37;99860;;;10.2;80.4
76987;BME280;65922;50.086;8.598;2022-12-29T02:42:35;99850;;;10.1;80.7
76987;BME280;65922;50.086;8.598;2022-12-29T02:43:35;99850;;;10.1;81
76987;BME280;65922;50.086;8.598;2022-12-29T02:44:35;99850;;;10;81.1
76987;BME280;65922;50.086;8.598;2022-12-29T02:45:35;99860;;;10.2;80.6
76987;BME280;65922;50.086;8.598;2022-12-29T02:46:34;99850;;;10.1;81
76987;BME280;65922;50.086;8.598;2022-12-29T02:47:35;99860;;;10.1;80.8
76987;BME280;65922;50.086;8.598;2022-12-29T02:48:36;99860;;;10.1;80.8
76987;BME280;65922;50.086;8.598;2022-12-29T02:49:36;99870;;;10.1;80.9
76987;BME280;65922;50.086;8.598;2022-12-29T02:50:35;99870;;;10.2;80.1
76987;BME280;65922;50.086;8.598;2022-12-29T02:51:35;99860;;;10.2;80.1
76987;BME280;65922;50.086;8.598;2022-12-29T02:52:35;99860;;;10.3;80
76987;BME280;65922;50.086;8.598;2022-12-29T02:53:34;99870;;;10.2;80.2
76987;BME280;65922;50.086;8.598;2022-12-29T02:54:34;99860;;;10.2;80.3
76987;BME280;65922;50.086;8.598;2022-12-29T02:55:34;99860;;;10.2;80.5
76987;BME280;65922;50.086;8.598;2022-12-29T02:56:34;99860;;;10.3;80.1
76987;BME280;65922;50.086;8.598;2022-12-29T02:57:34;99860;;;10.4;79.6
76987;BME280;65922;50.086;8.598;2022-12-29T02:58:34;99860;;;10.4;79.6
76987;BME280;65922;50.086;8.598;2022-12-29T02:59:34;99860;;;10.5;79.3
76987;BME280;65922;50.086;8.598;2022-12-29T03:00:34;99860;;;10.6;78.8
76987;BME280;65922;50.086;8.598;2022-12-29T03:01:37;99860;;;10.5;78.9
76987;BME280;65922;50.086;8.598;2022-12-29T03:02:39;99870;;;10.5;79.2
76987;BME280;65922;50.086;8.598;2022-12-29T03:03:38;99850;;;10.4;79.6
76987;BME280;65922;50.086;8.598;2022-12-29T03:04:36;99860;;;10.3;80
76987;BME280;65922;50.086;8.598;2022-12-29T03:05:40;99850;;;10.4;79.8
76987;BME280;65922;50.086;8.598;2022-12-29T03:06:35;99860;;;10.3;79.8
76987;BME280;65922;50.086;8.598;2022-12-29T03:07:36;99850;;;10.4;79.4
76987;BME280;65922;50.086;8.598;2022-12-29T03:08:34;99850;;;10.5;79.3
76987;BME280;65922;50.086;8.598;2022-12-29T03:09:35;99850;;;10.5;79.4
76987;BME280;65922;50.086;8.598;2022-12-29T03:10:36;99850;;;10.4;79.4
76987;BME280;65922;50.086;8.598;2022-12-29T03:11:38;99850;;;10.4;79.7
76987;BME280;65922;50.086;8.598;2022-12-29T03:12:34;99860;;;10.4;79.6
76987;BME280;65922;50.086;8.598;2022-12-29T03:13:35;99860;;;10.5;79.1
76987;BME280;65922;50.086;8.598;2022-12-29T03:14:36;99860;;;10.6;79
76987;BME280;65922;50.086;8.598;2022-12-29T03:15:34;99860;;;10.6;79
76987;BME280;65922;50.086;8.598;2022-12-29T03:16:34;99860;;;10.5;79
76987;BME280;65922;50.086;8.598;2022-12-29T03:17:37;99860;;;10.6;78.8
76987;BME280;65922;50.086;8.598;2022-12-29T03:18:37;99870;;;10.6;78.8
76987;BME280;65922;50.086;8.598;2022-12-29T03:19:34;99860;;;10.7;78.5
76987;BME280;65922;50.086;8.598;2022-12-29T03:20:36;99850;;;10.7;78.2
76987;BME280;65922;50.086;8.598;2022-12-29T03:21:36;99840;;;10.7;78.4
76987;BME280;65922;50.086;8.598;2022-12-29T03:22:35;99850;;;10.7;78.4
76987;BME280;65922;50.086;8.598;2022-12-29T03:23:34;99840;;;10.6;78.5
76987;BME280;65922;50.086;8.598;2022-12-29T03:24:34;99840;;;10.6;78.6
76987;BME280;65922;50.086;8.598;2022-12-29T03:25:35;99840;;;10.5;79
76987;BME280;65922;50.086;8.598;2022-12-29T03:26:34;99840;;;10.6;78.8
76987;BME280;65922;50.086;8.598;2022-12-29T03:27:35;99820;;;10.6;78.7
76987;BME280;65922;50.086;8.598;2022-12-29T03:28:36;99840;;;10.6;78.5
76987;BME280;65922;50.086;8.598;2022-12-29T03:29:35;99840;;;10.7;78.2
76987;BME280;65922;50.086;8.598;2022-12-29T03:30:34;99830;;;10.5;78.8
76987;BME280;65922;50.086;8.598;2022-12-29T03:31:35;99830;;;10.5;79.1
76987;BME280;65922;50.086;8.598;2022-12-29T03:32:36;99830;;;10.5;79.2
76987;BME280;65922;50.086;8.598;2022-12-29T03:33:34;99840;;;10.4;79.4
76987;BME280;65922;50.086;8.598;2022-12-29T03:34:34;99840;;;10.4;79.2
76987;BME280;65922;50.086;8.598;2022-12-29T03:35:34;99830;;;10.5;79.1
76987;BME280;65922;50.086;8.598;2022-12-29T03:36:35;99840;;;10.6;78.5
76987;BME280;65922;50.086;8.598;2022-12-29T03:37:35;99820;;;10.5;78.8
76987;BME280;65922;50.086;8.598;2022-12-29T03:38:35;99830;;;10.6;78.5
76987;BME280;65922;50.086;8.598;2022-12-29T03:39:34;99820;;;10.7;78.3
76987;BME280;65922;50.086;8.598;2022-12-29T03:40:34;99830;;;10.7;78.1
76987;BME280;65922;50.086;8.598;2022-12-29T03:41:34;99850;;;10.8;77.7
76987;BME280;65922;50.086;8.598;2022-12-29T03:42:35;99830;;;10.8;77.6
76987;BME280;65922;50.086;8.598;2022-12-29T03:43:34;99840;;;10.8;77.5
76987;BME280;65922;50.086;8.598;2022-12-29T03:44:35;99830;;;10.9;77.2
76987;BME280;65922;50.086;8.598;2022-12-29T03:45:34;99830;;;10.8;77.4
76987;BME280;65922;50.086;8.598;2022-12-29T03:46:34;99830;;;10.8;77.5
76987;BME280;65922;50.086;8.598;2022-12-29T03:47:34;99820;;;10.9;77.2
76987;BME280;65922;50.086;8.598;2022-12-29T03:48:34;99820;;;10.9;77.1
76987;BME280;65922;50.086;8.598;2022-12-29T03:49:34;99830;;;10.8;77.3
76987;BME280;65922;50.086;8.598;2022-12-29T03:50:34;99810;;;10.8;77.3
76987;BME280;65922;50.086;8.598;2022-12-29T03:51:34;99830;;;10.8;77.3
76987;BME280;65922;50.086;8.598;2022-12-29T03:52:34;99820;;;10.8;77.3
76987;BME280;65922;50.086;8.598;2022-12-29T03:53:34;99820;;;10.8;77.2
76987;BME280;65922;50.086;8.598;2022-12-29T03:54:34;99820;;;10.8;77.2
76987;BME280;65922;50.086;8.598;2022-12-29T03:55:34;99810;;;10.9;76.8
76987;BME280;65922;50.086;8.598;2022-12-29T03:56:34;99800;;;10.9;76.7
76987;BME280;65922;50.086;8.598;2022-12-29T03:57:34;99810;;;10.9;76.5
76987;BME280;65922;50.086;8.598;2022-12-29T03:58:34;99810;;;10.9;76.6
76987;BME280;65922;50.086;8.598;2022-12-29T03:59:34;99820;;;10.8;76.9
76987;BME280;65922;50.086;8.598;2022-12-29T04:00:34;99810;;;11;76
76987;BME280;65922;50.086;8.598;2022-12-29T04:01:34;99820;;;10.9;76
76987;BME280;65922;50.086;8.598;2022-12-29T04:02:34;99810;;;10.9;76.1
76987;BME280;65922;50.086;8.598;2022-12-29T04:03:34;99810;;;10.9;76.1
76987;BME280;65922;50.086;8.598;2022-12-29T04:04:34;99800;;;10.9;76.4
76987;BME280;65922;50.086;8.598;2022-12-29T04:05:34;99810;;;11;75.6
76987;BME280;65922;50.086;8.598;2022-12-29T04:06:34;99810;;;11;75.2
76987;BME280;65922;50.086;8.598;2022-12-29T04:07:34;99790;;;11;75
76987;BME280;65922;50.086;8.598;2022-12-29T04:08:34;99790;;;11.1;74.8
76987;BME280;65922;50.086;8.598;2022-12-29T04:09:34;99800;;;11.1;74.8
76987;BME280;65922;50.086;8.598;2022-12-29T04:10:34;99800;;;11.1;74.4
76987;BME280;65922;50.086;8.598;2022-12-29T04:11:34;99800;;;11.2;74
76987;BME280;65922;50.086;8.598;2022-12-29T04:12:34;99790;;;11.1;74.3
76987;BME280;65922;50.086;8.598;2022-12-29T04:13:34;99800;;;11.1;74.2
76987;BME280;65922;50.086;8.598;2022-12-29T04:14:34;99790;;;11.3;73.5
76987;BME280;65922;50.086;8.598;2022-12-29T04:15:34;99800;;;11.3;73.1
76987;BME280;65922;50.086;8.598;2022-12-29T04:16:34;99800;;;11.2;73.6
76987;BME280;65922;50.086;8.598;2022-12-29T04:17:34;99790;;;11.2;73.8
76987;BME280;65922;50.086;8.598;2022-12-29T04:18:34;99800;;;11.1;73.9
76987;BME280;65922;50.086;8.598;2022-12-29T04:19:34;99800;;;11.1;73.9
76987;BME280;65922;50.086;8.598;2022-12-29T04:20:34;99820;;;11.2;73.5
76987;BME280;65922;50.086;8.598;2022-12-29T04:21:34;99810;;;11.2;73.3
76987;BME280;65922;50.086;8.598;2022-12-29T04:22:34;99790;;;11.2;73.3
76987;BME280;65922;50.086;8.598;2022-12-29T04:23:35;99800;;;11.3;73
76987;BME280;65922;50.086;8.598;2022-12-29T04:24:34;99810;;;11.3;73
76987;BME280;65922;50.086;8.598;2022-12-29T04:25:34;99810;;;11.3;72.5
76987;BME280;65922;50.086;8.598;2022-12-29T04:26:34;99800;;;11.4;72.4
76987;BME280;65922;50.086;8.598;2022-12-29T04:27:34;99800;;;11.3;72.5
76987;BME280;65922;50.086;8.598;2022-12-29T04:28:34;99810;;;11.4;72.1
76987;BME280;65922;50.086;8.598;2022-12-29T04:29:34;99800;;;11.3;72.4
76987;BME280;65922;50.086;8.598;2022-12-29T04:30:34;99790;;;11.3;72.3
76987;BME280;65922;50.086;8.598;2022-12-29T04:31:34;99800;;;11.3;72.4
76987;BME280;65922;50.086;8.598;2022-12-29T04:32:34;99800;;;11.3;72.1
76987;BME280;65922;50.086;8.598;2022-12-29T04:33:34;99800;;;11.4;71.8
76987;BME280;65922;50.086;8.598;2022-12-29T04:34:34;99810;;;11.5;71.4
76987;BME280;65922;50.086;8.598;2022-12-29T04:35:34;99810;;;11.5;71.1
76987;BME280;65922;50.086;8.598;2022-12-29T04:36:34;99810;;;11.5;70.9
76987;BME280;65922;50.086;8.598;2022-12-29T04:37:34;99800;;;11.5;71
76987;BME280;65922;50.086;8.598;2022-12-29T04:38:34;99800;;;11.5;70.9
76987;BME280;65922;50.086;8.598;2022-12-29T04:39:34;99810;;;11.6;70.5
76987;BME280;65922;50.086;8.598;2022-12-29T04:40:34;99810;;;11.6;70.5
76987;BME280;65922;50.086;8.598;2022-12-29T04:41:34;99800;;;11.5;70.6
76987;BME280;65922;50.086;8.598;2022-12-29T04:42:34;99810;;;11.5;70.8
76987;BME280;65922;50.086;8.598;2022-12-29T04:43:34;99810;;;11.5;70.6
76987;BME280;65922;50.086;8.598;2022-12-29T04:44:34;99790;;;11.5;70.4
76987;BME280;65922;50.086;8.598;2022-12-29T04:45:34;99780;;;11.5;70.4
76987;BME280;65922;50.086;8.598;2022-12-29T04:46:34;99790;;;11.5;70.7
76987;BME280;65922;50.086;8.598;2022-12-29T04:47:34;99810;;;11.4;70.7
76987;BME280;65922;50.086;8.598;2022-12-29T04:48:34;99790;;;11.4;70.7
76987;BME280;65922;50.086;8.598;2022-12-29T04:49:34;99800;;;11.5;70.1
76987;BME280;65922;50.086;8.598;2022-12-29T04:50:34;99790;;;11.4;70.7
76987;BME280;65922;50.086;8.598;2022-12-29T04:51:34;99790;;;11.5;70.3
76987;BME280;65922;50.086;8.598;2022-12-29T04:52:34;99800;;;11.6;70.1
76987;BME280;65922;50.086;8.598;2022-12-29T04:53:34;99790;;;11.5;70.3
76987;BME280;65922;50.086;8.598;2022-12-29T04:54:34;99790;;;11.5;70.3
76987;BME280;65922;50.086;8.598;2022-12-29T04:55:34;99770;;;11.6;70
76987;BME280;65922;50.086;8.598;2022-12-29T04:56:34;99790;;;11.6;70.1
76987;BME280;65922;50.086;8.598;2022-12-29T04:57:34;99790;;;11.6;69.9
76987;BME280;65922;50.086;8.598;2022-12-29T04:58:34;99800;;;11.6;69.6
76987;BME280;65922;50.086;8.598;2022-12-29T04:59:34;99790;;;11.6;69.8
76987;BME280;65922;50.086;8.598;2022-12-29T05:00:34;99800;;;11.6;69.9
76987;BME280;65922;50.086;8.598;2022-12-29T05:01:34;99810;;;11.5;70.7
76987;BME280;65922;50.086;8.598;2022-12-29T05:02:34;99800;;;11.5;70.9
76987;BME280;65922;50.086;8.598;2022-12-29T05:03:34;99820;;;11.5;70.9
76987;BME280;65922;50.086;8.598;2022-12-29T05:04:34;99810;;;11.5;71.2
76987;BME280;65922;50.086;8.598;2022-12-29T05:05:34;99810;;;11.5;71.5
76987;BME280;65922;50.086;8.598;2022-12-29T05:06:34;99800;;;11.4;72
76987;BME280;65922;50.086;8.598;2022-12-29T05:07:34;99800;;;11.4;72.6
76987;BME280;65922;50.086;8.598;2022-12-29T05:08:34;99810;;;11.3;73
76987;BME280;65922;50.086;8.598;2022-12-29T05:09:34;99800;;;11.2;73.3
76987;BME280;65922;50.086;8.598;2022-12-29T05:10:34;99800;;;11.2;73.8
76987;BME280;65922;50.086;8.598;2022-12-29T05:11:34;99810;;;11.3;73.4
76987;BME280;65922;50.086;8.598;2022-12-29T05:12:34;99790;;;11.3;73.2
76987;BME280;65922;50.086;8.598;2022-12-29T05:13:34;99810;;;11.3;73
76987;BME280;65922;50.086;8.598;2022-12-29T05:14:34;99810;;;11.3;73.2
76987;BME280;65922;50.086;8.598;2022-12-29T05:16:34;99810;;;11.3;73.1
76987;BME280;65922;50.086;8.598;2022-12-29T05:17:34;99810;;;11.3;73.2
76987;BME280;65922;50.086;8.598;2022-12-29T05:18:34;99800;;;11.2;73.5
76987;BME280;65922;50.086;8.598;2022-12-29T05:19:34;99800;;;11.3;73
76987;BME280;65922;50.086;8.598;2022-12-29T05:20:34;99820;;;11.3;73.1
76987;BME280;65922;50.086;8.598;2022-12-29T05:21:34;99810;;;11.3;73
76987;BME280;65922;50.086;8.598;2022-12-29T05:22:34;99800;;;11.3;73.1
76987;BME280;65922;50.086;8.598;2022-12-29T05:23:34;99800;;;11.3;73.2
76987;BME280;65922;50.086;8.598;2022-12-29T05:24:34;99810;;;11.2;73.9
76987;BME280;65922;50.086;8.598;2022-12-29T05:25:34;99810;;;11.1;74.7
76987;BME280;65922;50.086;8.598;2022-12-29T05:26:34;99820;;;11;75.1
76987;BME280;65922;50.086;8.598;2022-12-29T05:27:34;99820;;;11;75.4
76987;BME280;65922;50.086;8.598;2022-12-29T05:28:34;99800;;;11;75.4
76987;BME280;65922;50.086;8.598;2022-12-29T05:29:34;99810;;;11;75.1
76987;BME280;65922;50.086;8.598;2022-12-29T05:30:34;99800;;;11.1;75.1
76987;BME280;65922;50.086;8.598;2022-12-29T05:31:34;99790;;;11.1;75
76987;BME280;65922;50.086;8.598;2022-12-29T05:32:34;99800;;;11.1;74.6
76987;BME280;65922;50.086;8.598;2022-12-29T05:33:34;99810;;;11;74.9
76987;BME280;65922;50.086;8.598;2022-12-29T05:34:34;99800;;;11.1;74.8
76987;BME280;65922;50.086;8.598;2022-12-29T05:35:34;99790;;;11;75
76987;BME280;65922;50.086;8.598;2022-12-29T05:36:34;99790;;;11.1;74.5
76987;BME280;65922;50.086;8.598;2022-12-29T05:37:34;99780;;;11.1;74.6
76987;BME280;65922;50.086;8.598;2022-12-29T05:38:34;99780;;;11.1;74.4
76987;BME280;65922;50.086;8.598;2022-12-29T05:39:34;99790;;;11.2;74.1
76987;BME280;65922;50.086;8.598;2022-12-29T05:40:34;99780;;;11.2;73.8
76987;BME280;65922;50.086;8.598;2022-12-29T05:41:34;99780;;;11.2;73.9
76987;BME280;65922;50.086;8.598;2022-12-29T05:42:34;99780;;;11.3;73.1
76987;BME280;65922;50.086;8.598;2022-12-29T05:43:34;99790;;;11.2;73.2